sensor_id;sensor_type;location;lat;lon;timestamp;pressure;altitude;pressure_sealevel;temperature;humidity
5954;BME280;3002;42.642;24.812;2023-05-14T00:00:42;97093.19;;;16.06;77.64
5954;BME280;3002;42.642;24.812;2023-05-14T00:03:08;97092.41;;;16.28;77.71
5954;BME280;3002;42.642;24.812;2023-05-14T00:05:33;97083.38;;;16.32;76.64
5954;BME280;3002;42.642;24.812;2023-05-14T00:07:59;97052.97;;;16.13;77.32
5954;BME280;3002;42.642;24.812;2023-05-14T00:10:25;97052.84;;;16.18;75.93
5954;BME280;3002;42.642;24.812;2023-05-14T00:12:51;97074.72;;;16.53;75.48
5954;BME280;3002;42.642;24.812;2023-05-14T00:15:16;97075.72;;;16.35;76.69
5954;BME280;3002;42.642;24.812;2023-05-14T00:17:42;97065.28;;;16.19;76.70
5954;BME280;3002;42.642;24.812;2023-05-14T00:20:08;97080.88;;;16.45;75.60
5954;BME280;3002;42.642;24.812;2023-05-14T00:22:36;97076.03;;;16.33;77.44
5954;BME280;3002;42.642;24.812;2023-05-14T00:25:02;97083.88;;;16.43;77.10
5954;BME280;3002;42.642;24.812;2023-05-14T00:27:27;97071.56;;;16.59;76.07
5954;BME280;3002;42.642;24.812;2023-05-14T00:29:52;97078.31;;;16.40;78.28
5954;BME280;3002;42.642;24.812;2023-05-14T00:32:18;97065.13;;;16.47;76.76
5954;BME280;3002;42.642;24.812;2023-05-14T00:34:43;97067.72;;;16.52;76.67
5954;BME280;3002;42.642;24.812;2023-05-14T00:37:09;97064.66;;;16.45;77.21
5954;BME280;3002;42.642;24.812;2023-05-14T00:39:34;97057.78;;;16.16;79.52
5954;BME280;3002;42.642;24.812;2023-05-14T00:42:00;97060.03;;;16.23;77.68
5954;BME280;3002;42.642;24.812;2023-05-14T00:44:25;97061.28;;;16.17;79.31
5954;BME280;3002;42.642;24.812;2023-05-14T00:46:51;97072.03;;;16.30;80.30
5954;BME280;3002;42.642;24.812;2023-05-14T00:49:17;97062.75;;;16.00;83.23
5954;BME280;3002;42.642;24.812;2023-05-14T00:51:43;97054.88;;;16.13;82.09
5954;BME280;3002;42.642;24.812;2023-05-14T00:54:13;97052.56;;;16.20;82.09
5954;BME280;3002;42.642;24.812;2023-05-14T00:56:39;97049.78;;;16.33;81.41
5954;BME280;3002;42.642;24.812;2023-05-14T00:59:04;97052.78;;;16.32;82.07
5954;BME280;3002;42.642;24.812;2023-05-14T01:01:30;97034.41;;;15.98;85.81
5954;BME280;3002;42.642;24.812;2023-05-14T01:03:56;97049.53;;;16.21;83.10
5954;BME280;3002;42.642;24.812;2023-05-14T01:09:21;97056.13;;;15.84;86.44
5954;BME280;3002;42.642;24.812;2023-05-14T01:15:03;97051.31;;;16.03;80.90
5954;BME280;3002;42.642;24.812;2023-05-14T01:17:32;97049.53;;;16.21;80.66
5954;BME280;3002;42.642;24.812;2023-05-14T01:19:58;97029.38;;;16.05;81.50
5954;BME280;3002;42.642;24.812;2023-05-14T01:22:24;97024.38;;;15.98;81.67
5954;BME280;3002;42.642;24.812;2023-05-14T01:24:50;97029.91;;;15.93;82.76
5954;BME280;3002;42.642;24.812;2023-05-14T01:27:30;97042.03;;;16.18;83.19
5954;BME280;3002;42.642;24.812;2023-05-14T01:32:50;97006.97;;;16.13;83.77
5954;BME280;3002;42.642;24.812;2023-05-14T01:35:19;97015.50;;;16.29;83.03
5954;BME280;3002;42.642;24.812;2023-05-14T01:37:47;97025.00;;;16.49;82.02
5954;BME280;3002;42.642;24.812;2023-05-14T01:40:13;97036.50;;;16.54;81.82
5954;BME280;3002;42.642;24.812;2023-05-14T01:42:40;97019.28;;;16.50;78.05
5954;BME280;3002;42.642;24.812;2023-05-14T01:45:05;97021.88;;;16.64;77.87
5954;BME280;3002;42.642;24.812;2023-05-14T01:47:32;97014.69;;;16.51;79.79
5954;BME280;3002;42.642;24.812;2023-05-14T01:49:57;97007.69;;;16.58;79.22
5954;BME280;3002;42.642;24.812;2023-05-14T01:52:22;97018.50;;;16.50;81.03
5954;BME280;3002;42.642;24.812;2023-05-14T01:54:48;97027.88;;;16.52;78.81
5954;BME280;3002;42.642;24.812;2023-05-14T01:57:14;97031.06;;;16.54;78.55
5954;BME280;3002;42.642;24.812;2023-05-14T01:59:39;97011.53;;;16.66;76.47
5954;BME280;3002;42.642;24.812;2023-05-14T02:02:05;97013.75;;;16.55;78.71
5954;BME280;3002;42.642;24.812;2023-05-14T02:04:30;96980.53;;;16.41;76.74
5954;BME280;3002;42.642;24.812;2023-05-14T02:06:56;96978.81;;;16.14;79.57
5954;BME280;3002;42.642;24.812;2023-05-14T02:09:21;97010.41;;;16.58;78.82
5954;BME280;3002;42.642;24.812;2023-05-14T02:11:47;97015.78;;;16.50;81.76
5954;BME280;3002;42.642;24.812;2023-05-14T02:14:12;96995.72;;;16.51;81.42
5954;BME280;3002;42.642;24.812;2023-05-14T02:16:39;97021.78;;;16.38;82.84
5954;BME280;3002;42.642;24.812;2023-05-14T02:19:04;96998.13;;;16.21;82.45
5954;BME280;3002;42.642;24.812;2023-05-14T02:21:30;97020.13;;;16.59;80.66
5954;BME280;3002;42.642;24.812;2023-05-14T02:23:58;96993.25;;;16.32;80.16
5954;BME280;3002;42.642;24.812;2023-05-14T02:26:24;97014.25;;;16.35;81.51
5954;BME280;3002;42.642;24.812;2023-05-14T02:28:49;97008.69;;;16.31;80.95
5954;BME280;3002;42.642;24.812;2023-05-14T02:31:34;97028.09;;;16.56;80.17
5954;BME280;3002;42.642;24.812;2023-05-14T02:34:00;97032.53;;;16.60;79.25
5954;BME280;3002;42.642;24.812;2023-05-14T02:36:26;97031.00;;;16.68;80.10
5954;BME280;3002;42.642;24.812;2023-05-14T02:38:51;97014.56;;;16.65;78.01
5954;BME280;3002;42.642;24.812;2023-05-14T02:41:17;97011.25;;;16.68;75.66
5954;BME280;3002;42.642;24.812;2023-05-14T02:43:42;97014.84;;;16.54;77.29
5954;BME280;3002;42.642;24.812;2023-05-14T02:46:08;97019.66;;;16.66;78.71
5954;BME280;3002;42.642;24.812;2023-05-14T02:48:33;97040.16;;;16.81;79.07
5954;BME280;3002;42.642;24.812;2023-05-14T02:50:59;97013.44;;;16.66;81.18
5954;BME280;3002;42.642;24.812;2023-05-14T02:53:24;97013.38;;;16.48;83.81
5954;BME280;3002;42.642;24.812;2023-05-14T02:55:50;97005.34;;;16.35;83.45
5954;BME280;3002;42.642;24.812;2023-05-14T02:58:15;97021.56;;;16.26;85.36
5954;BME280;3002;42.642;24.812;2023-05-14T03:00:41;97012.75;;;16.20;86.33
5954;BME280;3002;42.642;24.812;2023-05-14T03:03:06;97010.75;;;16.03;86.74
5954;BME280;3002;42.642;24.812;2023-05-14T03:05:32;97044.47;;;16.28;86.22
5954;BME280;3002;42.642;24.812;2023-05-14T03:07:57;97034.28;;;16.25;84.19
5954;BME280;3002;42.642;24.812;2023-05-14T03:10:23;97026.69;;;16.36;82.61
5954;BME280;3002;42.642;24.812;2023-05-14T03:12:48;97016.94;;;16.26;84.00
5954;BME280;3002;42.642;24.812;2023-05-14T03:15:14;97019.91;;;16.47;83.93
5954;BME280;3002;42.642;24.812;2023-05-14T03:17:39;97044.72;;;16.41;85.54
5954;BME280;3002;42.642;24.812;2023-05-14T03:20:05;97040.19;;;16.27;86.69
5954;BME280;3002;42.642;24.812;2023-05-14T03:22:31;97030.75;;;16.25;85.90
5954;BME280;3002;42.642;24.812;2023-05-14T03:24:56;97033.63;;;15.97;89.73
5954;BME280;3002;42.642;24.812;2023-05-14T03:27:22;97018.50;;;15.96;90.24
5954;BME280;3002;42.642;24.812;2023-05-14T03:29:47;97021.44;;;16.09;85.11
5954;BME280;3002;42.642;24.812;2023-05-14T03:32:13;97034.94;;;16.31;81.04
5954;BME280;3002;42.642;24.812;2023-05-14T03:34:39;97036.00;;;16.21;80.87
5954;BME280;3002;42.642;24.812;2023-05-14T03:37:06;97026.78;;;16.22;81.82
5954;BME280;3002;42.642;24.812;2023-05-14T03:39:31;97045.72;;;16.22;82.61
5954;BME280;3002;42.642;24.812;2023-05-14T03:41:57;97034.56;;;16.24;82.59
5954;BME280;3002;42.642;24.812;2023-05-14T03:44:23;97032.16;;;16.45;84.55
5954;BME280;3002;42.642;24.812;2023-05-14T03:46:49;97047.72;;;16.39;88.26
5954;BME280;3002;42.642;24.812;2023-05-14T03:49:15;97054.53;;;16.37;88.08
5954;BME280;3002;42.642;24.812;2023-05-14T03:51:40;97050.53;;;16.25;89.02
5954;BME280;3002;42.642;24.812;2023-05-14T03:54:06;97063.63;;;16.32;88.90
5954;BME280;3002;42.642;24.812;2023-05-14T03:56:31;97057.41;;;16.31;86.08
5954;BME280;3002;42.642;24.812;2023-05-14T03:58:57;97052.16;;;16.13;85.79
5954;BME280;3002;42.642;24.812;2023-05-14T04:01:22;97047.22;;;16.37;85.39
5954;BME280;3002;42.642;24.812;2023-05-14T04:03:48;97048.09;;;16.24;85.49
5954;BME280;3002;42.642;24.812;2023-05-14T04:06:13;97019.31;;;16.28;84.91
5954;BME280;3002;42.642;24.812;2023-05-14T04:08:44;97045.91;;;16.79;82.50
5954;BME280;3002;42.642;24.812;2023-05-14T04:11:09;97039.63;;;16.70;83.24
5954;BME280;3002;42.642;24.812;2023-05-14T04:13:35;97004.09;;;16.41;85.78
5954;BME280;3002;42.642;24.812;2023-05-14T04:16:00;97030.41;;;16.49;82.94
5954;BME280;3002;42.642;24.812;2023-05-14T04:18:26;97030.81;;;16.65;84.51
5954;BME280;3002;42.642;24.812;2023-05-14T04:20:51;97013.06;;;16.81;82.71
5954;BME280;3002;42.642;24.812;2023-05-14T04:23:17;97037.72;;;17.10;77.81
5954;BME280;3002;42.642;24.812;2023-05-14T04:25:42;97023.38;;;17.10;76.95
5954;BME280;3002;42.642;24.812;2023-05-14T04:28:08;97028.66;;;17.24;76.71
5954;BME280;3002;42.642;24.812;2023-05-14T04:30:33;97029.47;;;17.42;73.42
5954;BME280;3002;42.642;24.812;2023-05-14T04:32:59;97040.13;;;17.38;73.61
5954;BME280;3002;42.642;24.812;2023-05-14T04:35:24;97032.84;;;17.47;74.33
5954;BME280;3002;42.642;24.812;2023-05-14T04:37:49;97009.06;;;17.61;70.55
5954;BME280;3002;42.642;24.812;2023-05-14T04:40:15;97048.53;;;17.94;70.07
5954;BME280;3002;42.642;24.812;2023-05-14T04:42:41;97037.00;;;17.79;72.75
5954;BME280;3002;42.642;24.812;2023-05-14T04:45:08;97040.34;;;18.19;70.42
5954;BME280;3002;42.642;24.812;2023-05-14T04:47:34;97033.97;;;18.24;70.02
5954;BME280;3002;42.642;24.812;2023-05-14T04:50:00;97038.63;;;18.06;69.56
5954;BME280;3002;42.642;24.812;2023-05-14T04:52:25;97009.72;;;17.93;70.51
5954;BME280;3002;42.642;24.812;2023-05-14T04:54:51;97006.03;;;17.54;72.87
5954;BME280;3002;42.642;24.812;2023-05-14T04:57:16;97038.53;;;18.41;68.79
5954;BME280;3002;42.642;24.812;2023-05-14T04:59:42;97028.88;;;18.78;66.83
5954;BME280;3002;42.642;24.812;2023-05-14T05:02:07;97034.44;;;18.82;64.36
5954;BME280;3002;42.642;24.812;2023-05-14T05:04:33;97037.84;;;19.08;63.67
5954;BME280;3002;42.642;24.812;2023-05-14T05:06:58;97026.19;;;19.08;60.41
5954;BME280;3002;42.642;24.812;2023-05-14T05:09:24;97061.78;;;18.77;56.49
5954;BME280;3002;42.642;24.812;2023-05-14T05:11:50;97048.03;;;18.64;57.76
5954;BME280;3002;42.642;24.812;2023-05-14T05:14:15;97045.78;;;17.85;58.95
5954;BME280;3002;42.642;24.812;2023-05-14T05:16:41;97080.91;;;17.90;59.48
5954;BME280;3002;42.642;24.812;2023-05-14T05:19:06;97052.50;;;18.13;58.67
5954;BME280;3002;42.642;24.812;2023-05-14T05:21:32;97094.47;;;18.42;58.83
5954;BME280;3002;42.642;24.812;2023-05-14T05:23:57;97074.50;;;17.86;60.76
5954;BME280;3002;42.642;24.812;2023-05-14T05:26:24;97091.97;;;17.36;64.57
5954;BME280;3002;42.642;24.812;2023-05-14T05:28:51;97081.06;;;17.10;66.43
5954;BME280;3002;42.642;24.812;2023-05-14T05:31:16;97078.41;;;17.36;66.34
5954;BME280;3002;42.642;24.812;2023-05-14T05:33:42;97073.22;;;17.00;68.56
5954;BME280;3002;42.642;24.812;2023-05-14T05:36:08;97092.13;;;17.31;69.98
5954;BME280;3002;42.642;24.812;2023-05-14T05:38:33;97060.91;;;16.85;73.80
5954;BME280;3002;42.642;24.812;2023-05-14T05:40:58;97074.91;;;17.45;72.92
5954;BME280;3002;42.642;24.812;2023-05-14T05:43:24;97083.66;;;16.84;73.28
5954;BME280;3002;42.642;24.812;2023-05-14T05:45:49;97081.78;;;16.63;76.44
5954;BME280;3002;42.642;24.812;2023-05-14T05:48:15;97086.63;;;17.05;76.18
5954;BME280;3002;42.642;24.812;2023-05-14T05:50:46;97085.47;;;17.55;72.77
5954;BME280;3002;42.642;24.812;2023-05-14T05:53:13;97081.94;;;17.37;73.67
5954;BME280;3002;42.642;24.812;2023-05-14T05:55:41;97074.47;;;16.94;79.60
5954;BME280;3002;42.642;24.812;2023-05-14T05:58:06;97078.34;;;16.71;82.88
5954;BME280;3002;42.642;24.812;2023-05-14T06:00:32;97082.13;;;16.92;81.67
5954;BME280;3002;42.642;24.812;2023-05-14T06:02:58;97108.25;;;17.36;78.82
5954;BME280;3002;42.642;24.812;2023-05-14T06:05:23;97064.63;;;16.14;84.73
5954;BME280;3002;42.642;24.812;2023-05-14T06:07:49;97091.31;;;17.22;80.24
5954;BME280;3002;42.642;24.812;2023-05-14T06:10:14;97088.25;;;16.75;79.86
5954;BME280;3002;42.642;24.812;2023-05-14T06:12:40;97099.59;;;17.26;76.88
5954;BME280;3002;42.642;24.812;2023-05-14T06:15:06;97136.91;;;17.86;72.06
5954;BME280;3002;42.642;24.812;2023-05-14T06:17:31;97127.66;;;17.87;65.81
5954;BME280;3002;42.642;24.812;2023-05-14T06:19:57;97141.91;;;18.18;62.00
5954;BME280;3002;42.642;24.812;2023-05-14T06:22:22;97131.03;;;18.10;63.94
5954;BME280;3002;42.642;24.812;2023-05-14T06:24:48;97138.38;;;18.09;59.52
5954;BME280;3002;42.642;24.812;2023-05-14T06:27:13;97145.09;;;18.21;56.27
5954;BME280;3002;42.642;24.812;2023-05-14T06:29:39;97136.44;;;17.92;57.55
5954;BME280;3002;42.642;24.812;2023-05-14T06:32:04;97121.31;;;18.00;58.88
5954;BME280;3002;42.642;24.812;2023-05-14T06:34:30;97154.50;;;17.88;62.68
5954;BME280;3002;42.642;24.812;2023-05-14T06:36:56;97153.22;;;18.21;65.40
5954;BME280;3002;42.642;24.812;2023-05-14T06:39:22;97131.69;;;18.15;68.96
5954;BME280;3002;42.642;24.812;2023-05-14T06:41:48;97149.56;;;18.34;69.61
5954;BME280;3002;42.642;24.812;2023-05-14T06:44:15;97168.25;;;18.44;63.24
5954;BME280;3002;42.642;24.812;2023-05-14T06:46:41;97160.56;;;18.55;63.62
5954;BME280;3002;42.642;24.812;2023-05-14T06:49:06;97183.56;;;18.40;60.36
5954;BME280;3002;42.642;24.812;2023-05-14T06:51:32;97170.63;;;18.28;62.48
5954;BME280;3002;42.642;24.812;2023-05-14T06:53:57;97162.78;;;18.53;63.52
5954;BME280;3002;42.642;24.812;2023-05-14T06:56:23;97159.56;;;17.73;63.50
5954;BME280;3002;42.642;24.812;2023-05-14T06:58:48;97159.50;;;17.55;63.55
5954;BME280;3002;42.642;24.812;2023-05-14T07:01:15;97156.09;;;17.98;60.87
5954;BME280;3002;42.642;24.812;2023-05-14T07:03:48;97186.13;;;18.28;61.07
5954;BME280;3002;42.642;24.812;2023-05-14T07:06:13;97195.06;;;17.94;62.35
5954;BME280;3002;42.642;24.812;2023-05-14T07:08:38;97178.72;;;17.76;64.18
5954;BME280;3002;42.642;24.812;2023-05-14T07:11:06;97191.53;;;17.13;67.76
5954;BME280;3002;42.642;24.812;2023-05-14T07:13:31;97204.19;;;17.27;69.78
5954;BME280;3002;42.642;24.812;2023-05-14T07:15:56;97177.19;;;17.13;71.12
5954;BME280;3002;42.642;24.812;2023-05-14T07:18:22;97179.41;;;16.57;72.80
5954;BME280;3002;42.642;24.812;2023-05-14T07:20:48;97210.81;;;17.12;72.42
5954;BME280;3002;42.642;24.812;2023-05-14T07:23:13;97190.28;;;16.66;69.40
5954;BME280;3002;42.642;24.812;2023-05-14T07:25:39;97180.94;;;16.50;70.97
5954;BME280;3002;42.642;24.812;2023-05-14T07:28:05;97192.16;;;16.21;74.30
5954;BME280;3002;42.642;24.812;2023-05-14T07:30:31;97176.06;;;16.38;70.52
5954;BME280;3002;42.642;24.812;2023-05-14T07:32:56;97176.13;;;16.69;72.70
5954;BME280;3002;42.642;24.812;2023-05-14T07:35:22;97190.53;;;17.01;74.23
5954;BME280;3002;42.642;24.812;2023-05-14T07:37:48;97189.94;;;16.81;76.02
5954;BME280;3002;42.642;24.812;2023-05-14T07:40:13;97162.88;;;17.21;73.17
5954;BME280;3002;42.642;24.812;2023-05-14T07:42:39;97180.19;;;16.58;75.44
5954;BME280;3002;42.642;24.812;2023-05-14T07:45:05;97197.31;;;17.21;71.93
5954;BME280;3002;42.642;24.812;2023-05-14T07:47:30;97195.41;;;16.90;74.14
5954;BME280;3002;42.642;24.812;2023-05-14T07:49:56;97203.69;;;17.56;66.63
5954;BME280;3002;42.642;24.812;2023-05-14T07:52:23;97221.03;;;17.77;67.07
5954;BME280;3002;42.642;24.812;2023-05-14T07:54:49;97202.31;;;16.74;66.63
5954;BME280;3002;42.642;24.812;2023-05-14T07:57:16;97217.44;;;16.16;74.90
5954;BME280;3002;42.642;24.812;2023-05-14T07:59:41;97206.94;;;16.37;69.33
5954;BME280;3002;42.642;24.812;2023-05-14T08:02:07;97182.47;;;16.87;73.39
5954;BME280;3002;42.642;24.812;2023-05-14T08:04:35;97157.59;;;16.63;72.13
5954;BME280;3002;42.642;24.812;2023-05-14T08:07:00;97205.50;;;16.98;69.27
5954;BME280;3002;42.642;24.812;2023-05-14T08:09:26;97185.00;;;16.39;69.70
5954;BME280;3002;42.642;24.812;2023-05-14T08:11:51;97171.63;;;16.20;72.00
5954;BME280;3002;42.642;24.812;2023-05-14T08:14:17;97182.84;;;16.49;74.06
5954;BME280;3002;42.642;24.812;2023-05-14T08:16:42;97197.22;;;16.58;70.11
5954;BME280;3002;42.642;24.812;2023-05-14T08:19:08;97206.22;;;17.12;79.50
5954;BME280;3002;42.642;24.812;2023-05-14T08:21:33;97227.28;;;17.47;68.55
5954;BME280;3002;42.642;24.812;2023-05-14T08:23:59;97241.75;;;17.11;77.62
5954;BME280;3002;42.642;24.812;2023-05-14T08:26:24;97265.16;;;17.07;73.43
5954;BME280;3002;42.642;24.812;2023-05-14T08:28:51;97254.00;;;17.08;79.36
5954;BME280;3002;42.642;24.812;2023-05-14T08:31:16;97256.59;;;17.13;78.71
5954;BME280;3002;42.642;24.812;2023-05-14T08:33:42;97253.53;;;17.06;93.27
5954;BME280;3002;42.642;24.812;2023-05-14T08:36:08;97275.69;;;16.86;81.18
5954;BME280;3002;42.642;24.812;2023-05-14T08:38:33;97264.22;;;16.89;79.81
5954;BME280;3002;42.642;24.812;2023-05-14T08:40:59;97245.53;;;16.65;82.62
5954;BME280;3002;42.642;24.812;2023-05-14T08:43:30;97246.63;;;17.00;84.58
5954;BME280;3002;42.642;24.812;2023-05-14T08:46:03;97263.75;;;16.87;84.24
5954;BME280;3002;42.642;24.812;2023-05-14T08:48:31;97254.16;;;16.67;82.13
5954;BME280;3002;42.642;24.812;2023-05-14T08:50:58;97251.44;;;16.81;85.99
5954;BME280;3002;42.642;24.812;2023-05-14T08:53:42;97252.72;;;16.83;87.62
5954;BME280;3002;42.642;24.812;2023-05-14T08:56:09;97273.97;;;16.90;90.94
5954;BME280;3002;42.642;24.812;2023-05-14T08:58:35;97265.56;;;16.55;88.60
5954;BME280;3002;42.642;24.812;2023-05-14T09:01:00;97276.25;;;16.74;95.78
5954;BME280;3002;42.642;24.812;2023-05-14T09:03:26;97273.94;;;16.68;92.71
5954;BME280;3002;42.642;24.812;2023-05-14T09:05:52;97252.94;;;16.51;92.55
5954;BME280;3002;42.642;24.812;2023-05-14T09:08:18;97251.56;;;16.76;100.00
5954;BME280;3002;42.642;24.812;2023-05-14T09:10:44;97254.41;;;16.57;100.00
5954;BME280;3002;42.642;24.812;2023-05-14T09:13:10;97249.53;;;16.45;100.00
5954;BME280;3002;42.642;24.812;2023-05-14T09:15:36;97234.72;;;16.65;100.00
5954;BME280;3002;42.642;24.812;2023-05-14T09:18:06;97218.31;;;16.48;100.00
5954;BME280;3002;42.642;24.812;2023-05-14T09:20:31;97234.09;;;16.46;100.00
5954;BME280;3002;42.642;24.812;2023-05-14T09:22:58;97219.22;;;17.02;100.00
5954;BME280;3002;42.642;24.812;2023-05-14T09:25:29;97208.88;;;17.35;100.00
5954;BME280;3002;42.642;24.812;2023-05-14T09:27:56;97192.69;;;17.52;92.14
5954;BME280;3002;42.642;24.812;2023-05-14T09:30:23;97187.94;;;16.96;88.98
5954;BME280;3002;42.642;24.812;2023-05-14T09:32:48;97193.06;;;17.28;88.59
5954;BME280;3002;42.642;24.812;2023-05-14T09:35:19;97171.88;;;17.79;92.41
5954;BME280;3002;42.642;24.812;2023-05-14T09:37:49;97189.00;;;18.57;90.00
5954;BME280;3002;42.642;24.812;2023-05-14T09:40:16;97187.09;;;18.40;80.54
5954;BME280;3002;42.642;24.812;2023-05-14T09:42:42;97187.25;;;18.09;84.98
5954;BME280;3002;42.642;24.812;2023-05-14T09:45:08;97187.53;;;17.82;87.50
5954;BME280;3002;42.642;24.812;2023-05-14T09:47:35;97171.53;;;17.72;86.56
5954;BME280;3002;42.642;24.812;2023-05-14T09:50:01;97188.19;;;18.05;88.64
5954;BME280;3002;42.642;24.812;2023-05-14T09:52:27;97175.38;;;17.79;94.35
5954;BME280;3002;42.642;24.812;2023-05-14T09:54:52;97201.38;;;17.72;97.60
5954;BME280;3002;42.642;24.812;2023-05-14T09:57:19;97187.91;;;17.66;100.00
5954;BME280;3002;42.642;24.812;2023-05-14T09:59:45;97189.97;;;18.27;100.00
5954;BME280;3002;42.642;24.812;2023-05-14T10:02:36;97174.47;;;18.18;100.00
5954;BME280;3002;42.642;24.812;2023-05-14T10:05:04;97179.31;;;17.64;98.68
5954;BME280;3002;42.642;24.812;2023-05-14T10:07:41;97163.31;;;17.46;100.00
5954;BME280;3002;42.642;24.812;2023-05-14T10:10:15;97181.97;;;17.47;100.00
5954;BME280;3002;42.642;24.812;2023-05-14T10:12:51;97181.41;;;17.28;100.00
5954;BME280;3002;42.642;24.812;2023-05-14T10:15:24;97177.47;;;17.34;99.03
5954;BME280;3002;42.642;24.812;2023-05-14T10:17:55;97175.09;;;17.41;98.54
5954;BME280;3002;42.642;24.812;2023-05-14T10:20:23;97182.44;;;17.09;100.00
5954;BME280;3002;42.642;24.812;2023-05-14T10:22:51;97167.41;;;16.50;100.00
5954;BME280;3002;42.642;24.812;2023-05-14T10:25:17;97156.94;;;17.10;97.85
5954;BME280;3002;42.642;24.812;2023-05-14T10:27:43;97159.00;;;17.13;99.02
5954;BME280;3002;42.642;24.812;2023-05-14T10:30:11;97162.63;;;17.00;99.30
5954;BME280;3002;42.642;24.812;2023-05-14T10:32:37;97165.75;;;17.25;97.70
5954;BME280;3002;42.642;24.812;2023-05-14T10:35:15;97161.06;;;17.48;94.30
5954;BME280;3002;42.642;24.812;2023-05-14T10:37:43;97153.41;;;17.41;97.66
5954;BME280;3002;42.642;24.812;2023-05-14T10:40:11;97154.56;;;17.66;97.45
5954;BME280;3002;42.642;24.812;2023-05-14T10:42:38;97148.34;;;17.65;92.92
5954;BME280;3002;42.642;24.812;2023-05-14T10:45:10;97144.09;;;17.73;93.38
5954;BME280;3002;42.642;24.812;2023-05-14T10:47:37;97154.75;;;17.70;100.00
5954;BME280;3002;42.642;24.812;2023-05-14T10:50:05;97164.09;;;17.95;98.78
5954;BME280;3002;42.642;24.812;2023-05-14T10:52:32;97158.94;;;17.93;100.00
5954;BME280;3002;42.642;24.812;2023-05-14T10:54:59;97140.47;;;18.12;98.91
5954;BME280;3002;42.642;24.812;2023-05-14T10:57:29;97147.81;;;17.95;97.58
5954;BME280;3002;42.642;24.812;2023-05-14T10:59:59;97136.06;;;17.59;98.30
5954;BME280;3002;42.642;24.812;2023-05-14T11:02:33;97142.69;;;17.36;95.99
5954;BME280;3002;42.642;24.812;2023-05-14T11:05:02;97120.66;;;16.67;100.00
5954;BME280;3002;42.642;24.812;2023-05-14T11:07:33;97122.56;;;17.28;100.00
5954;BME280;3002;42.642;24.812;2023-05-14T11:10:04;97112.88;;;17.45;100.00
5954;BME280;3002;42.642;24.812;2023-05-14T11:12:31;97122.78;;;17.41;100.00
5954;BME280;3002;42.642;24.812;2023-05-14T11:14:59;97125.41;;;17.72;99.15
5954;BME280;3002;42.642;24.812;2023-05-14T11:17:29;97111.88;;;17.89;100.00
5954;BME280;3002;42.642;24.812;2023-05-14T11:19:54;97085.63;;;17.41;100.00
5954;BME280;3002;42.642;24.812;2023-05-14T11:22:20;97102.88;;;17.54;100.00
5954;BME280;3002;42.642;24.812;2023-05-14T11:24:46;97107.44;;;17.36;100.00
5954;BME280;3002;42.642;24.812;2023-05-14T11:27:12;97114.50;;;17.54;100.00
5954;BME280;3002;42.642;24.812;2023-05-14T11:29:38;97127.22;;;17.45;100.00
5954;BME280;3002;42.642;24.812;2023-05-14T11:32:07;97121.56;;;17.64;100.00
5954;BME280;3002;42.642;24.812;2023-05-14T11:34:33;97134.22;;;17.86;98.93
5954;BME280;3002;42.642;24.812;2023-05-14T11:37:05;97117.47;;;17.75;99.21
5954;BME280;3002;42.642;24.812;2023-05-14T11:39:31;97124.28;;;17.64;100.00
5954;BME280;3002;42.642;24.812;2023-05-14T11:41:58;97106.00;;;17.38;100.00
5954;BME280;3002;42.642;24.812;2023-05-14T11:44:23;97087.03;;;17.38;100.00
5954;BME280;3002;42.642;24.812;2023-05-14T11:46:56;97086.22;;;17.29;100.00
5954;BME280;3002;42.642;24.812;2023-05-14T11:49:22;97088.41;;;16.25;100.00
5954;BME280;3002;42.642;24.812;2023-05-14T11:51:49;97083.53;;;16.90;100.00
5954;BME280;3002;42.642;24.812;2023-05-14T11:54:14;97097.81;;;17.12;100.00
5954;BME280;3002;42.642;24.812;2023-05-14T11:56:40;97099.03;;;16.98;100.00
5954;BME280;3002;42.642;24.812;2023-05-14T11:59:06;97075.91;;;17.00;100.00
5954;BME280;3002;42.642;24.812;2023-05-14T12:01:38;97076.00;;;17.26;100.00
5954;BME280;3002;42.642;24.812;2023-05-14T12:04:04;97093.66;;;17.15;100.00
5954;BME280;3002;42.642;24.812;2023-05-14T12:06:30;97111.63;;;17.02;100.00
5954;BME280;3002;42.642;24.812;2023-05-14T12:08:56;97096.63;;;16.96;100.00
5954;BME280;3002;42.642;24.812;2023-05-14T12:11:22;97123.06;;;17.39;100.00
5954;BME280;3002;42.642;24.812;2023-05-14T12:13:47;97110.69;;;17.07;100.00
5954;BME280;3002;42.642;24.812;2023-05-14T12:16:12;97111.47;;;17.56;100.00
5954;BME280;3002;42.642;24.812;2023-05-14T12:18:38;97072.00;;;17.24;100.00
5954;BME280;3002;42.642;24.812;2023-05-14T12:21:04;97095.66;;;17.41;100.00
5954;BME280;3002;42.642;24.812;2023-05-14T12:23:32;97085.47;;;17.55;100.00
5954;BME280;3002;42.642;24.812;2023-05-14T12:26:05;97085.88;;;17.88;100.00
5954;BME280;3002;42.642;24.812;2023-05-14T12:28:31;97085.16;;;17.56;100.00
5954;BME280;3002;42.642;24.812;2023-05-14T12:30:57;97059.63;;;17.49;100.00
5954;BME280;3002;42.642;24.812;2023-05-14T12:33:24;97089.84;;;17.90;100.00
5954;BME280;3002;42.642;24.812;2023-05-14T12:35:51;97085.22;;;18.26;100.00
5954;BME280;3002;42.642;24.812;2023-05-14T12:38:18;97093.34;;;18.26;100.00
5954;BME280;3002;42.642;24.812;2023-05-14T12:40:44;97086.78;;;17.75;100.00
5954;BME280;3002;42.642;24.812;2023-05-14T12:43:09;97101.66;;;17.95;100.00
5954;BME280;3002;42.642;24.812;2023-05-14T12:45:34;97091.28;;;17.97;100.00
5954;BME280;3002;42.642;24.812;2023-05-14T12:48:00;97092.06;;;17.80;97.47
5954;BME280;3002;42.642;24.812;2023-05-14T12:50:25;97076.75;;;18.01;100.00
5954;BME280;3002;42.642;24.812;2023-05-14T12:52:51;97081.03;;;18.28;100.00
5954;BME280;3002;42.642;24.812;2023-05-14T12:55:16;97064.94;;;17.97;100.00
5954;BME280;3002;42.642;24.812;2023-05-14T12:57:42;97048.00;;;18.09;100.00
5954;BME280;3002;42.642;24.812;2023-05-14T13:00:08;97059.66;;;18.27;95.47
5954;BME280;3002;42.642;24.812;2023-05-14T13:02:36;97045.59;;;18.25;92.07
5954;BME280;3002;42.642;24.812;2023-05-14T13:05:01;97039.06;;;18.26;91.83
5954;BME280;3002;42.642;24.812;2023-05-14T13:07:28;97035.25;;;18.18;93.19
5954;BME280;3002;42.642;24.812;2023-05-14T13:09:56;97025.81;;;18.24;94.33
5954;BME280;3002;42.642;24.812;2023-05-14T13:12:22;97023.63;;;18.56;100.00
5954;BME280;3002;42.642;24.812;2023-05-14T13:14:48;97026.47;;;18.12;93.30